createdAt,value
2018-04-26T00:00:08.504Z,14.52
2018-04-26T00:02:34.427Z,14.41
2018-04-26T00:05:00.351Z,14.58
2018-04-26T00:07:26.288Z,14.41
2018-04-26T00:09:52.269Z,14.70
2018-04-26T00:12:18.213Z,14.76
2018-04-26T00:14:44.162Z,14.85
2018-04-26T00:17:10.108Z,14.69
2018-04-26T00:19:36.033Z,14.37
2018-04-26T00:22:01.971Z,14.47
2018-04-26T00:24:27.911Z,14.42
2018-04-26T00:26:53.865Z,14.31
2018-04-26T00:29:19.795Z,14.32
2018-04-26T00:31:45.717Z,14.42
2018-04-26T00:34:11.680Z,14.53
2018-04-26T00:36:37.620Z,14.75
2018-04-26T00:39:03.556Z,14.66
2018-04-26T00:41:29.504Z,14.57
2018-04-26T00:43:55.460Z,14.45
2018-04-26T00:46:21.424Z,14.60
2018-04-26T00:48:47.351Z,14.39
2018-04-26T00:51:13.273Z,14.57
2018-04-26T00:53:39.215Z,14.67
2018-04-26T00:56:05.166Z,14.62
2018-04-26T00:58:31.123Z,14.82
2018-04-26T01:00:57.044Z,14.79
2018-04-26T01:03:22.977Z,14.84
2018-04-26T01:05:48.905Z,14.96
2018-04-26T01:08:14.856Z,14.89
2018-04-26T01:10:40.828Z,15.04
2018-04-26T01:13:06.784Z,15.11
2018-04-26T01:15:32.724Z,14.96
2018-04-26T01:17:58.659Z,14.90
2018-04-26T01:20:24.610Z,14.61
2018-04-26T01:22:50.550Z,14.77
2018-04-26T01:25:16.476Z,14.70
2018-04-26T01:27:42.429Z,15.13
2018-04-26T01:30:08.373Z,15.09
2018-04-26T01:32:34.307Z,15.05
2018-04-26T01:35:00.246Z,14.87
2018-04-26T01:37:26.195Z,14.95
2018-04-26T01:39:52.189Z,14.89
2018-04-26T01:42:18.144Z,15.17
2018-04-26T01:44:44.105Z,15.04
2018-04-26T01:47:10.030Z,14.91
2018-04-26T01:49:36.008Z,14.49
2018-04-26T01:52:01.949Z,14.80
2018-04-26T01:54:27.909Z,14.48
2018-04-26T01:56:53.868Z,14.62
2018-04-26T01:59:19.823Z,14.39
2018-04-26T02:01:45.775Z,14.53
2018-04-26T02:11:47.197Z,14.54
2018-04-26T02:21:46.952Z,14.36
2018-04-26T02:24:16.234Z,14.41
2018-04-26T02:29:18.541Z,14.18
2018-04-26T02:31:44.502Z,14.36
2018-04-26T02:34:10.448Z,14.42
2018-04-26T02:36:40.293Z,14.50
2018-04-26T02:39:07.240Z,14.45
2018-04-26T02:44:04.422Z,14.31
2018-04-26T02:46:34.445Z,14.57
2018-04-26T02:49:00.392Z,14.27
2018-04-26T02:51:26.341Z,14.57
2018-04-26T02:53:52.273Z,14.53
2018-04-26T02:56:18.208Z,14.57
2018-04-26T02:58:44.164Z,14.50
2018-04-26T03:01:10.104Z,14.48
2018-04-26T03:03:36.062Z,14.41
2018-04-26T03:06:02.031Z,14.19
2018-04-26T03:08:27.992Z,14.28
2018-04-26T03:10:53.928Z,14.42
2018-04-26T03:13:19.852Z,14.47
2018-04-26T03:15:45.801Z,14.25
2018-04-26T03:18:11.775Z,14.11
2018-04-26T03:20:37.739Z,14.14
2018-04-26T03:23:03.703Z,14.00
2018-04-26T03:25:29.658Z,13.95
2018-04-26T03:27:55.615Z,14.44
2018-04-26T03:30:21.613Z,14.53
2018-04-26T03:32:47.571Z,14.33
2018-04-26T03:35:13.534Z,14.38
2018-04-26T03:37:39.485Z,14.29
2018-04-26T03:40:05.436Z,13.97
2018-04-26T03:42:31.398Z,13.94
2018-04-26T03:44:57.342Z,13.72
2018-04-26T03:47:23.301Z,13.60
2018-04-26T03:49:49.263Z,13.60
2018-04-26T03:52:15.199Z,13.64
2018-04-26T03:54:41.160Z,13.54
2018-04-26T03:57:07.104Z,13.42
2018-04-26T03:59:33.028Z,13.37
2018-04-26T04:01:58.975Z,13.39
2018-04-26T04:04:24.909Z,13.27
2018-04-26T04:06:50.862Z,13.56
2018-04-26T04:09:16.795Z,13.64
2018-04-26T04:11:42.738Z,13.69
2018-04-26T04:14:08.696Z,13.58
2018-04-26T04:16:34.636Z,13.47
2018-04-26T04:19:00.584Z,13.65
2018-04-26T04:21:26.531Z,13.67
2018-04-26T04:23:52.475Z,13.62
2018-04-26T04:26:18.424Z,13.90
2018-04-26T04:28:44.366Z,13.92
2018-04-26T04:31:10.312Z,13.78
2018-04-26T04:33:36.288Z,13.76
2018-04-26T04:36:02.238Z,13.84
2018-04-26T04:38:28.178Z,13.44
2018-04-26T04:40:54.119Z,13.57
2018-04-26T04:43:20.088Z,13.68
2018-04-26T04:45:46.024Z,13.75
2018-04-26T04:48:11.969Z,13.80
2018-04-26T04:50:37.910Z,14.00
2018-04-26T04:53:03.842Z,13.78
2018-04-26T04:55:29.780Z,13.88
2018-04-26T04:57:55.724Z,13.76
2018-04-26T05:00:21.679Z,13.89
2018-04-26T05:02:47.619Z,13.77
2018-04-26T05:05:13.559Z,13.79
2018-04-26T05:07:39.517Z,13.75
2018-04-26T05:10:05.442Z,13.96
2018-04-26T05:12:31.390Z,13.83
2018-04-26T05:14:57.344Z,13.86
2018-04-26T05:17:23.281Z,14.04
2018-04-26T05:19:49.405Z,14.05
2018-04-26T05:22:15.224Z,14.27
2018-04-26T05:24:41.182Z,14.44
2018-04-26T05:27:07.137Z,14.52
2018-04-26T05:29:33.096Z,14.48
2018-04-26T05:31:59.048Z,14.55
2018-04-26T05:34:25.001Z,14.41
2018-04-26T05:36:50.974Z,14.04
2018-04-26T05:39:16.933Z,14.18
2018-04-26T05:41:42.888Z,14.53
2018-04-26T05:44:08.843Z,14.33
2018-04-26T05:46:34.789Z,14.61
2018-04-26T05:49:00.717Z,14.58
2018-04-26T05:51:26.659Z,14.70
2018-04-26T05:53:52.608Z,14.55
2018-04-26T05:56:18.561Z,14.48
2018-04-26T05:58:44.501Z,14.59
2018-04-26T06:01:10.464Z,14.57
2018-04-26T06:03:36.574Z,14.59
2018-04-26T06:06:02.603Z,14.62
2018-04-26T06:08:28.565Z,14.75
2018-04-26T06:10:54.518Z,14.67
2018-04-26T06:13:20.472Z,14.44
2018-04-26T06:15:46.402Z,14.67
2018-04-26T06:18:12.366Z,14.47
2018-04-26T06:20:38.326Z,14.49
2018-04-26T06:23:04.279Z,14.31
2018-04-26T06:25:30.215Z,14.35
2018-04-26T06:27:56.184Z,14.14
2018-04-26T06:30:22.112Z,14.41
2018-04-26T06:32:48.060Z,14.48
2018-04-26T06:35:13.993Z,14.64
2018-04-26T06:37:39.950Z,15.08
2018-04-26T06:40:05.900Z,16.26
2018-04-26T06:42:31.877Z,16.69
2018-04-26T06:44:57.806Z,16.99
2018-04-26T06:47:23.747Z,17.62
2018-04-26T06:49:49.685Z,17.79
2018-04-26T06:52:15.642Z,17.44
2018-04-26T06:54:41.597Z,17.20
2018-04-26T06:57:07.539Z,17.05
2018-04-26T06:59:33.483Z,17.74
2018-04-26T07:01:59.466Z,18.50
2018-04-26T07:04:25.384Z,18.67
2018-04-26T07:06:51.380Z,18.69
2018-04-26T07:09:17.338Z,18.94
2018-04-26T07:11:43.269Z,17.40
2018-04-26T07:14:09.273Z,18.40
2018-04-26T07:16:35.316Z,18.99
2018-04-26T07:19:02.405Z,19.72
2018-04-26T07:21:28.371Z,20.14
2018-04-26T07:23:54.361Z,20.12
2018-04-26T07:26:20.305Z,21.02
2018-04-26T07:28:46.282Z,21.30
2018-04-26T07:31:12.239Z,22.21
2018-04-26T07:33:38.225Z,22.32
2018-04-26T07:36:04.149Z,22.89
2018-04-26T07:38:30.105Z,23.06
2018-04-26T07:40:56.039Z,23.62
2018-04-26T07:43:22.026Z,22.72
2018-04-26T07:45:47.970Z,23.35
2018-04-26T07:48:13.930Z,23.88
2018-04-26T07:50:39.892Z,23.71
2018-04-26T07:53:05.936Z,22.96
2018-04-26T07:55:31.832Z,23.76
2018-04-26T07:57:57.773Z,23.03
2018-04-26T08:00:23.723Z,21.73
2018-04-26T08:02:49.688Z,21.26
2018-04-26T08:05:15.626Z,22.40
2018-04-26T08:07:41.578Z,23.29
2018-04-26T08:10:07.527Z,23.74
2018-04-26T08:12:33.521Z,23.19
2018-04-26T08:14:59.463Z,23.44
2018-04-26T08:17:25.380Z,23.65
2018-04-26T08:19:54.503Z,23.72
2018-04-26T08:22:20.447Z,23.86
2018-04-26T08:24:46.481Z,23.83
2018-04-26T08:27:12.448Z,22.73
2018-04-26T08:29:38.397Z,22.17
2018-04-26T08:32:04.333Z,22.33
2018-04-26T08:34:30.286Z,22.00
2018-04-26T08:36:56.312Z,20.70
2018-04-26T08:39:22.237Z,20.66
2018-04-26T08:41:48.192Z,20.86
2018-04-26T08:44:14.184Z,19.36
2018-04-26T08:46:40.162Z,19.48
2018-04-26T08:49:06.130Z,19.10
2018-04-26T08:51:32.063Z,19.07
2018-04-26T08:53:58.036Z,18.96
2018-04-26T08:56:24.024Z,19.03
2018-04-26T08:58:50.013Z,19.16
2018-04-26T09:01:15.945Z,18.42
2018-04-26T09:03:41.907Z,18.13
2018-04-26T09:06:07.874Z,18.48
2018-04-26T09:08:33.992Z,17.84
2018-04-26T09:11:00.485Z,17.70
2018-04-26T09:13:26.441Z,17.59
2018-04-26T09:15:52.512Z,18.00
2018-04-26T09:18:18.406Z,17.56
2018-04-26T09:20:44.336Z,17.71
2018-04-26T09:23:10.263Z,17.91
2018-04-26T09:25:36.214Z,18.21
2018-04-26T09:28:02.152Z,18.01
2018-04-26T09:30:28.129Z,18.08
2018-04-26T09:32:54.103Z,18.16
2018-04-26T09:35:20.097Z,18.17
2018-04-26T09:37:46.064Z,18.36
2018-04-26T09:40:12.050Z,17.92
2018-04-26T09:42:38.002Z,17.61
2018-04-26T09:45:03.968Z,17.95
2018-04-26T09:47:29.954Z,17.95
2018-04-26T09:49:55.934Z,17.33
2018-04-26T09:52:21.872Z,17.19
2018-04-26T09:54:47.842Z,17.07
2018-04-26T09:57:13.796Z,17.30
2018-04-26T09:59:39.749Z,17.15
2018-04-26T10:02:05.703Z,16.81
2018-04-26T10:04:31.665Z,16.80
2018-04-26T10:06:57.600Z,16.76
2018-04-26T10:09:23.593Z,17.11
2018-04-26T10:11:49.528Z,17.09
2018-04-26T10:14:15.501Z,17.06
2018-04-26T10:16:41.448Z,16.79
2018-04-26T10:19:07.378Z,16.76
2018-04-26T10:21:33.329Z,16.55
2018-04-26T10:23:59.290Z,17.06
2018-04-26T10:26:25.228Z,17.26
2018-04-26T10:28:51.175Z,17.19
2018-04-26T10:31:17.131Z,17.05
2018-04-26T10:33:43.053Z,16.93
2018-04-26T10:36:09.002Z,17.03
2018-04-26T10:38:34.954Z,17.33
2018-04-26T10:41:00.902Z,17.11
2018-04-26T10:43:26.863Z,17.03
2018-04-26T10:45:52.812Z,17.01
2018-04-26T10:48:18.767Z,16.88
2018-04-26T10:50:44.718Z,17.24
2018-04-26T10:53:10.658Z,17.25
2018-04-26T10:55:36.635Z,17.56
2018-04-26T10:58:02.621Z,16.97
2018-04-26T11:00:28.613Z,16.67
2018-04-26T11:02:54.562Z,16.83
2018-04-26T11:05:20.529Z,16.98
2018-04-26T11:07:46.581Z,16.87
2018-04-26T11:10:12.544Z,16.91
2018-04-26T11:12:38.472Z,16.93
2018-04-26T11:15:05.486Z,16.61
2018-04-26T11:17:31.446Z,16.77
2018-04-26T11:19:57.501Z,17.00
2018-04-26T11:22:23.457Z,17.05
2018-04-26T11:24:49.397Z,17.10
2018-04-26T11:27:15.345Z,17.01
2018-04-26T11:29:41.308Z,16.98
2018-04-26T11:32:07.254Z,17.08
2018-04-26T11:34:33.211Z,16.69
2018-04-26T11:36:59.169Z,16.89
2018-04-26T11:39:25.113Z,16.88
2018-04-26T11:41:51.083Z,16.85
2018-04-26T11:44:17.032Z,16.87
2018-04-26T11:46:42.975Z,16.93
2018-04-26T11:49:08.948Z,17.15
2018-04-26T11:51:34.956Z,17.06
2018-04-26T11:54:00.984Z,17.13
2018-04-26T11:56:27.025Z,17.20
2018-04-26T11:58:52.961Z,16.75
2018-04-26T12:01:18.909Z,16.68
2018-04-26T12:03:44.845Z,16.81
2018-04-26T12:06:10.793Z,16.68
2018-04-26T12:08:36.742Z,16.65
2018-04-26T12:11:02.696Z,16.44
2018-04-26T12:13:28.655Z,16.19
2018-04-26T12:15:54.595Z,15.86
2018-04-26T12:18:20.525Z,15.28
2018-04-26T12:20:46.501Z,14.93
2018-04-26T12:23:12.474Z,15.22
2018-04-26T12:25:38.436Z,15.53
2018-04-26T12:28:04.394Z,15.71
2018-04-26T12:30:30.370Z,15.73
2018-04-26T12:32:56.298Z,15.82
2018-04-26T12:35:22.223Z,15.82
2018-04-26T12:37:48.154Z,15.84
2018-04-26T12:40:14.079Z,16.32
2018-04-26T12:42:40.032Z,16.48
2018-04-26T12:45:05.979Z,16.42
2018-04-26T12:47:31.935Z,16.18
2018-04-26T12:49:57.869Z,16.20
2018-04-26T12:52:23.784Z,16.41
2018-04-26T12:54:49.737Z,16.40
2018-04-26T12:57:15.681Z,16.42
2018-04-26T12:59:41.618Z,16.61
2018-04-26T13:02:07.568Z,16.13
2018-04-26T13:04:33.510Z,16.35
2018-04-26T13:06:59.437Z,16.22
2018-04-26T13:09:25.367Z,16.21
2018-04-26T13:11:51.322Z,16.02
2018-04-26T13:14:17.275Z,15.87
2018-04-26T13:16:43.210Z,15.74
2018-04-26T13:19:09.146Z,15.97
2018-04-26T13:21:35.115Z,16.09
2018-04-26T13:24:01.209Z,16.20
2018-04-26T13:26:27.161Z,16.12
2018-04-26T13:28:53.096Z,15.94
2018-04-26T13:31:19.083Z,16.11
2018-04-26T13:33:45.025Z,16.49
2018-04-26T13:36:11.011Z,16.73
2018-04-26T13:38:36.950Z,16.66
2018-04-26T13:41:02.899Z,16.72
2018-04-26T13:43:28.831Z,16.76
2018-04-26T13:45:54.784Z,16.71
2018-04-26T13:48:20.744Z,16.66
2018-04-26T13:50:46.697Z,16.74
2018-04-26T13:53:12.672Z,16.84
2018-04-26T13:55:38.641Z,16.84
2018-04-26T13:58:04.570Z,16.71
2018-04-26T14:00:30.521Z,16.58
2018-04-26T14:02:56.495Z,16.87
2018-04-26T14:05:22.436Z,16.62
2018-04-26T14:07:48.389Z,16.91
2018-04-26T14:10:14.336Z,17.08
2018-04-26T14:12:40.265Z,16.95
2018-04-26T14:15:06.227Z,17.03
2018-04-26T14:17:32.192Z,16.76
2018-04-26T14:19:58.158Z,17.00
2018-04-26T14:22:24.121Z,16.93
2018-04-26T14:24:50.097Z,16.93
2018-04-26T14:27:16.049Z,16.67
2018-04-26T14:29:42.440Z,17.14
2018-04-26T14:32:08.358Z,17.11
2018-04-26T14:34:34.342Z,16.87
2018-04-26T14:37:00.285Z,16.86
2018-04-26T14:39:26.250Z,16.87
2018-04-26T14:41:52.189Z,16.66
2018-04-26T14:44:18.188Z,16.93
2018-04-26T14:46:44.139Z,16.89
2018-04-26T14:49:10.188Z,16.57
2018-04-26T14:51:36.156Z,16.76
2018-04-26T14:54:02.132Z,16.50
2018-04-26T14:56:28.090Z,16.76
2018-04-26T14:58:54.163Z,16.98
2018-04-26T15:01:20.130Z,16.82
2018-04-26T15:03:46.188Z,17.12
2018-04-26T15:06:12.115Z,17.19
2018-04-26T15:08:38.072Z,16.91
2018-04-26T15:11:04.092Z,17.17
2018-04-26T15:13:30.048Z,17.06
2018-04-26T15:15:56.004Z,17.12
2018-04-26T15:18:21.953Z,17.18
2018-04-26T15:20:47.893Z,17.18
2018-04-26T15:23:13.856Z,17.37
2018-04-26T15:25:39.800Z,16.90
2018-04-26T15:28:05.764Z,17.07
2018-04-26T15:30:31.729Z,17.19
2018-04-26T15:32:57.757Z,17.11
2018-04-26T15:35:23.711Z,17.05
2018-04-26T15:37:49.660Z,17.18
2018-04-26T15:40:15.620Z,17.21
2018-04-26T15:42:41.600Z,17.32
2018-04-26T15:45:07.550Z,17.24
2018-04-26T15:47:33.511Z,17.19
2018-04-26T15:49:59.539Z,17.24
2018-04-26T15:52:25.455Z,17.10
2018-04-26T15:54:51.420Z,16.95
2018-04-26T15:57:17.360Z,17.05
2018-04-26T15:59:43.341Z,16.99
2018-04-26T16:02:09.341Z,17.17
2018-04-26T16:04:35.278Z,17.25
2018-04-26T16:07:01.214Z,17.17
2018-04-26T16:09:27.260Z,17.16
2018-04-26T16:11:53.178Z,17.33
2018-04-26T16:14:19.672Z,17.33
2018-04-26T16:16:46.924Z,17.02
2018-04-26T16:19:12.917Z,17.18
2018-04-26T16:21:38.865Z,17.30
2018-04-26T16:24:04.814Z,17.23
2018-04-26T16:26:30.782Z,17.21
2018-04-26T16:28:56.739Z,17.24
2018-04-26T16:31:22.670Z,17.27
2018-04-26T16:33:48.619Z,17.27
2018-04-26T16:36:14.554Z,17.39
2018-04-26T16:38:40.496Z,17.32
2018-04-26T16:41:06.465Z,17.23
2018-04-26T16:43:32.440Z,17.27
2018-04-26T16:45:58.410Z,17.14
2018-04-26T16:48:24.381Z,16.97
2018-04-26T16:50:50.319Z,17.05
2018-04-26T16:53:16.274Z,17.23
2018-04-26T16:55:42.210Z,17.19
2018-04-26T16:58:08.136Z,17.14
2018-04-26T17:00:34.090Z,17.25
2018-04-26T17:03:00.041Z,17.22
2018-04-26T17:05:26.000Z,17.33
2018-04-26T17:07:51.945Z,17.27
2018-04-26T17:10:17.916Z,17.35
2018-04-26T17:12:43.857Z,17.39
2018-04-26T17:15:09.836Z,17.31
2018-04-26T17:17:35.794Z,17.36
2018-04-26T17:20:01.752Z,17.29
2018-04-26T17:22:27.782Z,17.35
2018-04-26T17:24:53.716Z,17.35
2018-04-26T17:27:19.788Z,17.32
2018-04-26T17:29:45.765Z,17.27
2018-04-26T17:32:11.733Z,17.26
2018-04-26T17:34:37.780Z,17.23
2018-04-26T17:37:03.710Z,16.85
2018-04-26T17:39:30.712Z,16.37
2018-04-26T17:41:56.752Z,16.21
2018-04-26T17:44:22.713Z,16.27
2018-04-26T17:46:48.656Z,16.57
2018-04-26T17:49:14.600Z,16.46
2018-04-26T17:51:40.527Z,15.69
2018-04-26T17:54:06.473Z,16.06
2018-04-26T17:56:32.423Z,16.02
2018-04-26T17:58:58.550Z,16.11
2018-04-26T18:01:24.522Z,16.13
2018-04-26T18:03:50.448Z,15.98
2018-04-26T18:06:16.400Z,15.97
2018-04-26T18:08:42.349Z,16.06
2018-04-26T18:11:08.281Z,15.98
2018-04-26T18:13:36.295Z,15.73
2018-04-26T18:16:02.278Z,15.67
2018-04-26T18:18:28.250Z,15.73
2018-04-26T18:20:54.225Z,16.08
2018-04-26T18:23:20.190Z,16.32
2018-04-26T18:25:46.157Z,16.20
2018-04-26T18:28:12.212Z,14.91
2018-04-26T18:30:38.198Z,15.37
2018-04-26T18:33:04.169Z,15.67
2018-04-26T18:35:30.134Z,15.19
2018-04-26T18:37:56.210Z,14.90
2018-04-26T18:40:22.173Z,14.37
2018-04-26T18:42:48.153Z,15.01
2018-04-26T18:45:14.113Z,14.91
2018-04-26T18:47:40.073Z,14.75
2018-04-26T18:50:06.032Z,14.69
2018-04-26T18:52:32.002Z,14.80
2018-04-26T18:54:57.942Z,15.15
2018-04-26T18:57:23.901Z,14.98
2018-04-26T18:59:50.943Z,15.06
2018-04-26T19:02:16.973Z,15.32
2018-04-26T19:04:42.928Z,15.06
2018-04-26T19:07:08.853Z,14.66
2018-04-26T19:09:34.786Z,13.74
2018-04-26T19:12:00.766Z,13.75
2018-04-26T19:14:26.713Z,13.67
2018-04-26T19:16:52.660Z,13.40
2018-04-26T19:19:18.601Z,13.54
2018-04-26T19:21:44.568Z,13.35
2018-04-26T19:24:10.526Z,13.11
2018-04-26T19:26:36.488Z,13.69
2018-04-26T19:29:02.493Z,13.59
2018-04-26T19:31:28.543Z,13.19
2018-04-26T19:33:54.531Z,13.57
2018-04-26T19:36:20.492Z,13.29
2018-04-26T19:38:46.420Z,13.51
2018-04-26T19:41:12.368Z,13.85
2018-04-26T19:43:38.333Z,13.92
2018-04-26T19:46:04.393Z,13.80
2018-04-26T19:48:30.381Z,13.98
2018-04-26T19:50:56.337Z,14.13
2018-04-26T19:53:22.274Z,13.94
2018-04-26T19:55:48.213Z,13.84
2018-04-26T19:58:14.168Z,13.91
2018-04-26T20:00:40.192Z,13.58
2018-04-26T20:03:06.221Z,13.50
2018-04-26T20:05:32.144Z,13.39
2018-04-26T20:07:58.075Z,13.49
2018-04-26T20:10:24.010Z,13.47
2018-04-26T20:12:51.040Z,13.77
2018-04-26T20:15:17.042Z,13.95
2018-04-26T20:17:44.002Z,13.88
2018-04-26T20:20:10.017Z,13.89
2018-04-26T20:22:35.965Z,13.68
2018-04-26T20:25:01.924Z,13.81
2018-04-26T20:27:27.918Z,13.63
2018-04-26T20:29:53.898Z,13.59
2018-04-26T20:32:19.845Z,13.58
2018-04-26T20:34:45.801Z,13.46
2018-04-26T20:37:11.769Z,13.28
2018-04-26T20:39:37.726Z,12.86
2018-04-26T20:42:03.694Z,12.84
2018-04-26T20:44:29.652Z,12.83
2018-04-26T20:46:55.593Z,12.79
2018-04-26T20:49:21.554Z,12.72
2018-04-26T20:51:47.509Z,12.58
2018-04-26T20:54:13.458Z,12.34
2018-04-26T20:56:39.428Z,12.50
2018-04-26T20:59:05.361Z,12.54
2018-04-26T21:01:31.314Z,12.88
2018-04-26T21:03:57.243Z,12.79
2018-04-26T21:06:23.192Z,13.02
2018-04-26T21:08:49.172Z,13.02
2018-04-26T21:11:15.132Z,13.05
2018-04-26T21:13:41.090Z,12.78
2018-04-26T21:16:07.088Z,13.14
2018-04-26T21:18:33.048Z,13.11
2018-04-26T21:20:58.971Z,13.26
2018-04-26T21:23:24.940Z,13.15
2018-04-26T21:25:50.868Z,12.89
2018-04-26T21:28:16.826Z,12.89
2018-04-26T21:30:42.791Z,12.77
2018-04-26T21:33:08.748Z,12.69
2018-04-26T21:35:34.794Z,12.90
2018-04-26T21:38:00.998Z,12.94
2018-04-26T21:40:26.961Z,12.71
2018-04-26T21:42:52.939Z,12.73
2018-04-26T21:45:18.906Z,12.97
2018-04-26T21:47:46.915Z,13.23
2018-04-26T21:50:12.869Z,13.50
2018-04-26T21:52:38.837Z,13.45
2018-04-26T21:55:04.774Z,13.13
2018-04-26T21:57:30.912Z,13.06
2018-04-26T21:59:56.978Z,13.20
2018-04-26T22:02:22.926Z,12.83
2018-04-26T22:04:48.905Z,13.06
2018-04-26T22:07:14.847Z,13.22
2018-04-26T22:09:40.793Z,13.23
2018-04-26T22:12:06.833Z,12.90
2018-04-26T22:14:32.794Z,13.20
2018-04-26T22:16:58.771Z,13.03
2018-04-26T22:19:24.723Z,13.10
2018-04-26T22:21:50.753Z,12.83
2018-04-26T22:24:16.698Z,12.58
2018-04-26T22:26:42.656Z,12.29
2018-04-26T22:29:08.660Z,12.42
2018-04-26T22:31:34.627Z,12.44
2018-04-26T22:34:00.604Z,12.50
2018-04-26T22:36:26.544Z,12.28
2018-04-26T22:38:52.484Z,12.21
2018-04-26T22:41:18.447Z,12.23
2018-04-26T22:43:44.431Z,12.22
2018-04-26T22:46:10.374Z,12.37
2018-04-26T22:48:36.320Z,12.45
2018-04-26T22:51:02.271Z,12.55
2018-04-26T22:53:28.234Z,12.18
2018-04-26T22:55:54.156Z,12.34
2018-04-26T22:58:20.267Z,12.19
2018-04-26T23:00:46.193Z,12.20
2018-04-26T23:03:12.124Z,12.34
2018-04-26T23:05:38.057Z,12.49
2018-04-26T23:08:03.998Z,12.34
2018-04-26T23:10:29.951Z,12.57
2018-04-26T23:12:55.893Z,12.71
2018-04-26T23:15:21.872Z,12.27
2018-04-26T23:17:47.821Z,12.04
2018-04-26T23:20:14.680Z,12.49
2018-04-26T23:22:40.776Z,12.22
2018-04-26T23:25:06.707Z,12.01
2018-04-26T23:27:32.646Z,11.78
2018-04-26T23:29:58.650Z,11.59
2018-04-26T23:32:24.616Z,12.06
2018-04-26T23:34:50.588Z,11.98
2018-04-26T23:37:16.537Z,12.40
2018-04-26T23:39:42.507Z,12.38
2018-04-26T23:42:08.488Z,12.04
2018-04-26T23:44:34.438Z,12.11
2018-04-26T23:47:00.412Z,11.86
2018-04-26T23:49:26.348Z,12.13
2018-04-26T23:51:52.311Z,11.93
2018-04-26T23:54:18.267Z,12.04
2018-04-26T23:56:44.191Z,12.04
2018-04-26T23:59:10.125Z,11.59
